Terminal Aerodrome Forecast
Issued by NWS Albuquerque, NM

Home | Current Version | Previous Version | Text Only | Print | Product List | Glossary On
Versions: 1 2 3 4 5 6 7 8 9 10 11 12 13 14 15
000
FTUS45 KABQ 222300
TAFABQ
TAF
KABQ 222337Z 2300/2324 25010KT P6SM VCTS SCT050CB BKN100
      TEMPO 2300/2301 VRB15G23KT 6SM SHRA BKN050
     FM230200 VRB06KT P6SM SCT110
     FM230600 VRB04KT P6SM FEW050
     FM231700 25007KT P6SM SKC=

USA.gov is the U.S. government's official web portal to all federal, state and local government web resources and services.